Time;durP1;ratioP1;P1;durP2;ratioP2;P2;SDS_P1;SDS_P2;PMS_P1;PMS_P2;Temp;Humidity;BMP_temperature;BMP_pressure;BME280_temperature;BME280_humidity;BME280_pressure;Samples;Min_cycle;Max_cycle;Signal;HPM_P1;HPM_P2
2021/10/07 00:00:38;;;;;;;2.77;1.60;;;;;;;11.62;84.86;101034.22;5050269;28;20207;-80
2021/10/07 00:03:05;;;;;;;2.20;1.27;;;;;;;11.63;84.99;101020.22;5048060;28;20243;-79
2021/10/07 00:05:33;;;;;;;3.30;1.47;;;;;;;11.55;84.44;101046.47;5050595;28;20207;-81
2021/10/07 00:08:00;;;;;;;1.60;1.10;;;;;;;11.55;85.19;101019.47;5049732;28;20255;-81
2021/10/07 00:10:27;;;;;;;1.67;1.20;;;;;;;11.43;84.98;101033.56;5048946;28;20207;-79
2021/10/07 00:12:53;;;;;;;2.33;1.20;;;;;;;11.39;84.74;101032.75;5047641;28;20623;-80
2021/10/07 00:15:20;;;;;;;1.90;1.30;;;;;;;11.41;84.92;101014.44;5047415;28;20219;-80
2021/10/07 00:17:47;;;;;;;1.10;1.07;;;;;;;11.41;85.85;101006.59;5046612;28;20733;-81
2021/10/07 00:20:16;;;;;;;2.60;1.60;;;;;;;11.39;86.23;101000.53;5046139;28;20219;-77
2021/10/07 00:22:45;;;;;;;2.77;1.50;;;;;;;11.39;86.01;101004.00;5046006;28;20231;-80
2021/10/07 00:25:13;;;;;;;3.33;1.63;;;;;;;11.36;85.16;101029.31;5046118;28;20246;-80
2021/10/07 00:27:40;;;;;;;1.90;1.40;;;;;;;11.37;85.97;101018.81;5046191;28;20657;-81
2021/10/07 00:30:12;;;;;;;1.37;1.13;;;;;;;11.36;85.70;101019.72;5045967;28;20215;-79
2021/10/07 00:32:43;;;;;;;1.57;1.30;;;;;;;11.33;85.17;101046.75;5046190;28;20254;-80
2021/10/07 00:35:21;;;;;;;1.67;1.30;;;;;;;11.30;85.82;101028.50;5046130;28;20347;-81
2021/10/07 00:40:33;;;;;;;1.30;1.20;;;;;;;11.25;85.90;101008.53;5045458;28;20223;-82
2021/10/07 00:43:00;;;;;;;2.23;1.40;;;;;;;11.19;86.52;101004.25;5045577;28;20731;-80
2021/10/07 00:45:26;;;;;;;1.53;1.17;;;;;;;11.17;86.07;101013.84;5045743;28;20641;-81
2021/10/07 00:47:52;;;;;;;1.70;1.20;;;;;;;11.11;86.38;101019.16;5045276;28;20230;-81
2021/10/07 00:50:19;;;;;;;1.43;1.20;;;;;;;11.06;86.63;101024.44;5045271;28;21389;-79
2021/10/07 00:52:45;;;;;;;0.93;0.87;;;;;;;11.04;86.65;101020.09;5045878;28;20202;-82
2021/10/07 00:55:14;;;;;;;1.40;1.20;;;;;;;11.03;86.42;101026.22;5045619;28;20711;-81
2021/10/07 00:57:41;;;;;;;2.20;1.10;;;;;;;10.99;86.41;101030.63;5044852;28;20227;-81
2021/10/07 01:00:09;;;;;;;1.00;0.90;;;;;;;11.03;86.65;101034.91;5045164;28;20284;-78
2021/10/07 01:02:37;;;;;;;1.27;1.00;;;;;;;11.04;86.44;101041.88;5045112;28;20245;-81
2021/10/07 01:05:04;;;;;;;3.47;1.30;;;;;;;11.00;86.75;101036.69;5045982;28;20290;-80
2021/10/07 01:07:31;;;;;;;2.37;1.20;;;;;;;10.97;87.18;101037.59;5044795;28;20822;-81
2021/10/07 01:09:57;;;;;;;1.67;1.27;;;;;;;11.04;87.88;101021.00;5045446;28;20272;-81
2021/10/07 01:12:25;;;;;;;1.03;1.03;;;;;;;11.19;89.53;100972.88;5045506;28;20223;-80
2021/10/07 01:14:52;;;;;;;1.20;1.10;;;;;;;11.23;88.52;100992.00;5045973;28;20284;-81
2021/10/07 01:17:21;;;;;;;1.63;1.40;;;;;;;11.30;89.01;101004.13;5044854;28;20286;-81
2021/10/07 01:19:50;;;;;;;1.70;1.20;;;;;;;11.31;88.27;101003.22;5044486;28;20205;-80
2021/10/07 01:22:17;;;;;;;1.67;1.13;;;;;;;11.28;88.22;101009.38;5045244;28;20235;-81
2021/10/07 01:24:45;;;;;;;1.67;1.33;;;;;;;11.26;87.91;101023.34;5045587;28;20217;-78
2021/10/07 01:27:11;;;;;;;4.00;1.43;;;;;;;11.26;88.67;101002.44;5045819;28;20232;-81
2021/10/07 01:29:38;;;;;;;2.00;1.50;;;;;;;11.29;88.56;101003.25;5045447;28;20210;-79
2021/10/07 01:32:06;;;;;;;1.20;1.10;;;;;;;11.27;88.32;101018.06;5045160;28;20206;-79
2021/10/07 01:34:32;;;;;;;1.90;1.30;;;;;;;11.26;88.32;101011.13;5045417;28;20207;-82
2021/10/07 01:37:01;;;;;;;2.03;1.33;;;;;;;11.30;88.53;101006.75;5045143;28;20646;-80
2021/10/07 01:39:28;;;;;;;2.40;1.30;;;;;;;11.21;88.73;101012.94;5046052;28;20207;-81
2021/10/07 01:41:54;;;;;;;1.90;1.17;;;;;;;11.13;89.45;100994.72;5046066;28;20583;-81
2021/10/07 01:44:24;;;;;;;1.37;1.27;;;;;;;11.15;89.53;100992.09;5046072;28;20260;-81
2021/10/07 01:46:51;;;;;;;2.40;1.27;;;;;;;11.10;89.66;100981.72;5044839;28;20237;-79
2021/10/07 01:49:17;;;;;;;1.20;1.10;;;;;;;11.11;89.91;100983.44;5044359;28;20205;-80
2021/10/07 01:51:44;;;;;;;2.00;1.23;;;;;;;11.16;90.13;100969.44;5045367;28;20213;-78
2021/10/07 01:54:12;;;;;;;2.90;1.20;;;;;;;11.28;90.70;100953.63;5046095;28;20198;-80
2021/10/07 01:56:38;;;;;;;1.53;0.93;;;;;;;11.36;91.07;100943.94;5044782;28;20280;-81
2021/10/07 01:59:06;;;;;;;1.30;1.20;;;;;;;11.33;90.09;100972.72;5045155;28;20209;-80
2021/10/07 02:01:33;;;;;;;1.20;1.10;;;;;;;11.37;89.44;100986.59;5045753;28;20209;-79
2021/10/07 02:03:59;;;;;;;1.10;1.00;;;;;;;11.40;88.92;101013.56;5044947;28;20230;-79
2021/10/07 02:06:26;;;;;;;1.60;1.30;;;;;;;11.41;88.81;101030.97;5044787;28;20251;-80
2021/10/07 02:08:52;;;;;;;1.23;1.10;;;;;;;11.37;88.78;101021.44;5044965;28;20210;-81
2021/10/07 02:11:20;;;;;;;2.77;1.77;;;;;;;11.40;88.40;101039.72;5045747;28;20262;-82
2021/10/07 02:13:46;;;;;;;1.70;1.60;;;;;;;11.40;88.10;101055.41;5044761;28;20728;-82
2021/10/07 02:16:13;;;;;;;2.37;1.57;;;;;;;11.34;88.66;101050.25;5045062;28;20823;-79
2021/10/07 02:18:39;;;;;;;1.70;1.60;;;;;;;11.37;88.90;101052.81;5045624;28;20267;-81
2021/10/07 02:21:06;;;;;;;2.50;2.30;;;;;;;11.35;88.43;101059.81;5044956;28;20215;-81
2021/10/07 02:23:33;;;;;;;2.03;1.83;;;;;;;11.39;88.15;101073.72;5045113;28;20218;-78
2021/10/07 02:25:59;;;;;;;2.20;2.00;;;;;;;11.37;88.52;101067.63;5045849;28;20209;-81
2021/10/07 02:28:27;;;;;;;4.17;2.17;;;;;;;11.38;88.88;101067.63;5045458;28;20240;-79
2021/10/07 02:30:54;;;;;;;2.57;2.37;;;;;;;11.41;88.48;101067.56;5045905;28;20214;-82
2021/10/07 02:33:20;;;;;;;1.80;1.67;;;;;;;11.46;88.84;101052.72;5045259;28;20210;-79
2021/10/07 02:35:47;;;;;;;2.33;1.73;;;;;;;11.42;88.71;101074.53;5045377;28;20214;-81
2021/10/07 02:38:13;;;;;;;2.03;1.70;;;;;;;11.38;88.76;101078.09;5045050;28;20227;-81
2021/10/07 02:40:39;;;;;;;2.63;1.80;;;;;;;11.30;88.87;101075.56;5045899;28;21264;-79
2021/10/07 02:43:06;;;;;;;3.53;2.10;;;;;;;11.32;88.58;101086.84;5045814;28;20234;-81
2021/10/07 02:45:34;;;;;;;1.80;1.70;;;;;;;11.37;88.82;101081.56;5045200;28;21168;-80
2021/10/07 02:48:00;;;;;;;1.97;1.43;;;;;;;11.41;88.66;101090.25;5044669;28;20319;-80
2021/10/07 02:50:27;;;;;;;4.63;1.73;;;;;;;11.44;88.29;101096.31;5045623;28;20257;-81
2021/10/07 02:52:54;;;;;;;2.20;2.00;;;;;;;11.43;88.50;101105.00;5045880;28;20203;-81
2021/10/07 02:55:21;;;;;;;1.77;1.67;;;;;;;11.39;88.46;101100.72;5045184;28;20213;-79
2021/10/07 02:57:48;;;;;;;2.07;1.90;;;;;;;11.41;88.50;101111.16;5044957;28;20236;-79
2021/10/07 03:00:17;;;;;;;2.60;2.07;;;;;;;11.48;88.11;101118.06;5046668;28;20685;-81
2021/10/07 03:02:44;;;;;;;2.37;2.27;;;;;;;11.38;88.57;101116.41;5048358;28;20230;-81
2021/10/07 03:05:13;;;;;;;2.40;2.20;;;;;;;11.33;88.94;101106.88;5048799;28;21204;-81
2021/10/07 03:07:39;;;;;;;3.30;2.43;;;;;;;11.41;88.59;101122.47;5049190;28;20234;-80
2021/10/07 03:10:07;;;;;;;2.93;2.30;;;;;;;11.36;88.56;101128.63;5050363;28;20222;-81
2021/10/07 03:12:33;;;;;;;2.93;2.27;;;;;;;11.43;88.29;101138.13;5050940;28;20210;-81
2021/10/07 03:15:00;;;;;;;2.43;2.23;;;;;;;11.44;88.24;101137.28;5051283;28;20272;-81
2021/10/07 03:17:26;;;;;;;2.30;2.10;;;;;;;11.46;88.29;101136.38;5051400;28;20233;-80
2021/10/07 03:19:54;;;;;;;2.07;1.97;;;;;;;11.42;88.80;101123.34;5051298;28;20267;-82
2021/10/07 03:22:21;;;;;;;2.20;2.10;;;;;;;11.39;88.95;101123.38;5051590;28;20240;-81
2021/10/07 03:24:48;;;;;;;2.63;2.03;;;;;;;11.41;89.17;101111.16;5051824;28;20207;-80
2021/10/07 03:27:14;;;;;;;2.20;2.00;;;;;;;11.42;88.90;101126.81;5051500;28;20256;-82
2021/10/07 03:29:41;;;;;;;1.93;1.73;;;;;;;11.45;88.94;101128.53;5051150;28;20211;-81
2021/10/07 03:32:07;;;;;;;3.20;2.03;;;;;;;11.44;89.46;101118.97;5051354;28;20218;-80
2021/10/07 03:34:34;;;;;;;2.17;1.97;;;;;;;11.43;89.22;101131.16;5052030;28;20607;-82
2021/10/07 03:37:02;;;;;;;2.20;1.97;;;;;;;11.42;89.50;101118.13;5052715;28;20643;-82
2021/10/07 03:39:28;;;;;;;3.20;1.77;;;;;;;11.45;89.90;101112.84;5050443;28;20213;-81
2021/10/07 03:41:54;;;;;;;5.10;1.83;;;;;;;11.47;89.78;101116.31;5049698;28;20216;-79
2021/10/07 03:44:21;;;;;;;1.83;1.73;;;;;;;11.48;88.94;101145.06;5048796;28;20783;-82
2021/10/07 03:46:47;;;;;;;3.57;1.97;;;;;;;11.46;88.69;101159.88;5049140;28;20231;-79
2021/10/07 03:49:14;;;;;;;2.97;1.97;;;;;;;11.55;89.91;101147.59;5048125;28;20737;-80
2021/10/07 03:51:40;;;;;;;2.30;2.10;;;;;;;11.68;90.90;101118.66;5049573;28;20211;-82
2021/10/07 03:54:08;;;;;;;2.10;1.90;;;;;;;11.60;89.54;101143.19;5052919;28;20199;-80
2021/10/07 03:56:34;;;;;;;2.37;2.17;;;;;;;11.58;88.73;101171.97;5056868;28;20657;-79
2021/10/07 03:59:01;;;;;;;2.27;2.07;;;;;;;11.62;89.40;101181.50;5056155;28;20209;-81
2021/10/07 04:01:27;;;;;;;2.20;2.03;;;;;;;11.60;89.08;101191.13;5054056;28;20217;-81
2021/10/07 04:03:53;;;;;;;2.13;1.93;;;;;;;11.57;88.43;101208.59;5048589;28;20231;-81
2021/10/07 04:06:20;;;;;;;2.27;1.80;;;;;;;11.50;88.48;101219.09;5049525;28;20208;-82
2021/10/07 04:08:46;;;;;;;2.47;1.83;;;;;;;11.49;88.17;101230.44;5048025;28;20264;-82
2021/10/07 04:11:14;;;;;;;2.27;2.10;;;;;;;11.47;89.51;101203.44;5049123;28;20202;-80
2021/10/07 04:13:40;;;;;;;2.33;2.00;;;;;;;11.46;88.96;101206.94;5049075;28;20741;-82
2021/10/07 04:16:07;;;;;;;2.63;1.80;;;;;;;11.41;88.98;101220.94;5049058;28;20264;-81
2021/10/07 04:18:33;;;;;;;2.40;2.20;;;;;;;11.43;88.41;101235.72;5047641;28;20213;-80
2021/10/07 04:21:00;;;;;;;2.60;2.40;;;;;;;11.48;89.25;101207.78;5049688;28;20625;-82
2021/10/07 04:23:26;;;;;;;5.07;2.80;;;;;;;11.59;89.98;101185.91;5048828;28;20241;-80
2021/10/07 04:25:52;;;;;;;3.40;3.10;;;;;;;11.66;89.42;101201.50;5046755;28;20205;-79
2021/10/07 04:28:20;;;;;;;3.00;2.57;;;;;;;11.62;87.99;101236.41;5048427;28;20252;-80
2021/10/07 04:30:46;;;;;;;4.97;2.50;;;;;;;11.60;87.29;101271.31;5048349;28;20271;-80
2021/10/07 04:33:13;;;;;;;2.60;2.40;;;;;;;11.59;87.33;101293.09;5048399;28;20748;-80
2021/10/07 04:35:41;;;;;;;3.00;2.33;;;;;;;11.52;87.71;101285.31;5048256;28;20242;-81
2021/10/07 04:38:08;;;;;;;4.37;2.60;;;;;;;11.56;87.45;101293.16;5048271;28;20233;-79
2021/10/07 04:40:35;;;;;;;3.77;2.70;;;;;;;11.49;87.66;101293.19;5048465;28;20266;-81
2021/10/07 04:43:01;;;;;;;3.40;2.90;;;;;;;11.43;88.13;101279.31;5048052;28;20292;-79
2021/10/07 04:45:30;;;;;;;2.87;2.67;;;;;;;11.42;88.15;101282.81;5048780;28;20222;-82
2021/10/07 04:47:57;;;;;;;4.50;2.30;;;;;;;11.38;88.29;101273.25;5048766;28;20787;-82
2021/10/07 04:50:23;;;;;;;3.03;2.27;;;;;;;11.36;88.80;101254.09;5048599;28;20217;-82
2021/10/07 04:52:50;;;;;;;3.73;2.47;;;;;;;11.33;88.52;101271.53;5048580;28;20228;-80
2021/10/07 04:55:16;;;;;;;3.23;2.93;;;;;;;11.36;88.71;101275.88;5048491;28;20210;-80
2021/10/07 04:57:42;;;;;;;2.93;2.73;;;;;;;11.31;88.86;101273.28;5048482;28;20297;-80
2021/10/07 05:00:10;;;;;;;3.03;2.60;;;;;;;11.37;88.29;101288.06;5048132;28;21034;-78
2021/10/07 05:02:38;;;;;;;3.10;2.90;;;;;;;11.36;88.49;101291.56;5048929;28;20798;-81
2021/10/07 05:05:05;;;;;;;2.60;2.40;;;;;;;11.29;88.43;101289.88;5048810;28;20283;-81
2021/10/07 05:07:31;;;;;;;2.63;2.43;;;;;;;11.26;88.41;101303.00;5048868;28;20222;-79
2021/10/07 05:09:58;;;;;;;2.83;2.60;;;;;;;11.24;88.48;101307.38;5045944;28;20210;-80
2021/10/07 05:12:24;;;;;;;2.93;2.70;;;;;;;11.17;88.85;101282.16;5046728;28;20245;-81
2021/10/07 05:14:50;;;;;;;2.80;2.60;;;;;;;11.13;88.92;101287.38;5046629;28;20203;-80
2021/10/07 05:17:17;;;;;;;2.60;2.40;;;;;;;11.08;88.97;101290.91;5047852;28;20242;-82
2021/10/07 05:19:45;;;;;;;2.47;2.13;;;;;;;11.07;88.52;101303.09;5047327;28;20213;-83
2021/10/07 05:22:11;;;;;;;2.50;2.30;;;;;;;11.05;88.15;101314.47;5045155;28;20220;-82
2021/10/07 05:24:37;;;;;;;3.90;2.40;;;;;;;11.01;88.12;101325.81;5046190;28;20783;-82
2021/10/07 05:27:04;;;;;;;3.40;2.53;;;;;;;10.98;88.08;101331.03;5047012;28;20280;-82
2021/10/07 05:29:32;;;;;;;3.60;2.33;;;;;;;10.83;88.49;101326.78;5046707;28;20218;-83
2021/10/07 05:31:58;;;;;;;2.53;2.33;;;;;;;10.84;88.28;101325.91;5047430;28;20769;-82
2021/10/07 05:34:25;;;;;;;3.23;2.10;;;;;;;10.79;88.42;101339.00;5044825;28;20339;-82
2021/10/07 05:36:53;;;;;;;2.70;2.17;;;;;;;10.73;88.34;101339.88;5045720;28;20225;-82
2021/10/07 05:39:19;;;;;;;2.30;2.20;;;;;;;10.71;88.42;101346.00;5045475;28;20268;-82
2021/10/07 05:41:45;;;;;;;2.27;2.07;;;;;;;10.62;88.75;101330.38;5044613;28;20202;-81
2021/10/07 05:44:12;;;;;;;3.30;2.20;;;;;;;10.60;88.81;101339.94;5045667;28;20644;-83
2021/10/07 05:46:39;;;;;;;3.30;1.80;;;;;;;10.57;88.68;101339.97;5045698;28;20278;-82
2021/10/07 05:49:06;;;;;;;2.17;1.90;;;;;;;10.56;88.11;101359.13;5045702;28;20299;-82
2021/10/07 05:51:33;;;;;;;2.17;2.07;;;;;;;10.57;87.88;101366.94;5045483;28;20556;-82
2021/10/07 05:54:01;;;;;;;3.37;2.27;;;;;;;10.52;87.64;101382.63;5045778;28;20203;-80
2021/10/07 05:56:28;;;;;;;1.97;1.80;;;;;;;10.52;87.52;101385.25;5045467;28;20201;-82
2021/10/07 05:58:54;;;;;;;2.10;2.00;;;;;;;10.43;87.34;101405.28;5044219;28;20205;-84
2021/10/07 06:01:21;;;;;;;2.67;2.20;;;;;;;10.43;87.64;101385.25;5046911;28;20254;-82
2021/10/07 06:03:47;;;;;;;2.20;2.00;;;;;;;10.40;87.54;101389.63;5047034;28;20279;-82
2021/10/07 06:06:13;;;;;;;2.17;1.97;;;;;;;10.38;87.37;101399.19;5045753;28;20231;-82
2021/10/07 06:08:40;;;;;;;2.20;2.07;;;;;;;10.36;87.20;101403.56;5046886;28;20202;-82
2021/10/07 06:11:07;;;;;;;2.53;1.93;;;;;;;10.41;87.10;101412.25;5047458;28;20628;-83
2021/10/07 06:13:34;;;;;;;3.20;2.40;;;;;;;10.45;87.00;101420.06;5050069;28;20217;-81
2021/10/07 06:16:00;;;;;;;2.43;2.20;;;;;;;10.27;87.56;101420.94;5048023;28;20202;-82
2021/10/07 06:18:26;;;;;;;3.00;2.70;;;;;;;10.19;88.30;101393.09;5045955;28;20227;-81
2021/10/07 06:20:53;;;;;;;2.43;2.23;;;;;;;10.21;88.99;101375.72;5046646;28;20658;-82
2021/10/07 06:23:19;;;;;;;3.97;2.17;;;;;;;10.12;88.68;101380.06;5048783;28;20225;-83
2021/10/07 06:25:46;;;;;;;2.30;2.10;;;;;;;10.17;88.55;101387.91;5048083;28;20269;-83
2021/10/07 06:28:13;;;;;;;2.17;2.00;;;;;;;10.23;88.76;101392.25;5047732;28;20229;-83
2021/10/07 06:30:40;;;;;;;2.40;2.20;;;;;;;10.24;89.10;101388.75;5046242;28;20273;-84
2021/10/07 06:33:06;;;;;;;2.93;1.90;;;;;;;10.29;88.99;101390.50;5045041;28;20212;-82
2021/10/07 06:35:33;;;;;;;2.63;2.27;;;;;;;10.26;89.24;101379.19;5048669;28;20681;-83
2021/10/07 06:37:59;;;;;;;2.63;2.40;;;;;;;10.32;89.36;101374.84;5046631;28;20219;-87
2021/10/07 06:40:25;;;;;;;3.00;2.40;;;;;;;10.39;89.55;101380.94;5045904;28;20204;-86
2021/10/07 06:42:52;;;;;;;2.77;2.23;;;;;;;10.40;89.47;101385.25;5046853;28;20215;-86
2021/10/07 06:45:20;;;;;;;2.10;2.00;;;;;;;10.36;90.22;101362.66;5046614;28;20284;-87
2021/10/07 06:47:47;;;;;;;2.20;2.10;;;;;;;10.37;90.21;101351.34;5046579;28;20279;-86
2021/10/07 06:50:13;;;;;;;2.60;2.10;;;;;;;10.39;90.18;101361.81;5046888;28;20194;-85
2021/10/07 06:52:41;;;;;;;3.03;2.40;;;;;;;10.39;90.59;101357.44;5046038;28;20207;-84
2021/10/07 06:55:10;;;;;;;4.20;2.53;;;;;;;10.44;90.53;101360.03;5046082;28;20197;-86
2021/10/07 06:57:36;;;;;;;2.90;2.60;;;;;;;10.50;90.48;101360.00;5046172;28;20252;-86
2021/10/07 07:00:04;;;;;;;2.70;2.00;;;;;;;10.50;90.72;101352.16;5047186;28;20202;-79
2021/10/07 07:02:31;;;;;;;3.67;2.53;;;;;;;10.48;91.02;101354.78;5051098;28;20210;-86
2021/10/07 07:04:58;;;;;;;2.50;2.20;;;;;;;10.52;90.91;101348.69;5048362;28;20227;-85
2021/10/07 07:07:25;;;;;;;3.90;2.47;;;;;;;10.49;91.49;101340.88;5049021;28;20279;-84
2021/10/07 07:09:52;;;;;;;3.90;2.40;;;;;;;10.48;91.67;101339.13;5046033;28;20209;-84
2021/10/07 07:12:18;;;;;;;4.70;2.50;;;;;;;10.48;92.03;101325.19;5046853;28;20215;-88
2021/10/07 07:14:45;;;;;;;4.70;3.43;;;;;;;10.51;92.71;101312.16;5046766;28;20248;-89
2021/10/07 07:17:11;;;;;;;3.73;3.43;;;;;;;10.51;93.00;101299.97;5049404;28;20849;-86
2021/10/07 07:19:39;;;;;;;4.40;3.70;;;;;;;10.53;93.22;101297.34;5045476;28;20205;-86
2021/10/07 07:22:05;;;;;;;6.87;4.90;;;;;;;10.52;93.56;101291.28;5046567;28;20237;-86
2021/10/07 07:24:32;;;;;;;6.70;5.00;;;;;;;10.53;94.20;101279.94;5046221;28;20262;-86
2021/10/07 07:26:59;;;;;;;7.23;5.43;;;;;;;10.54;94.38;101275.56;5044161;28;20237;-88
2021/10/07 07:29:25;;;;;;;5.67;4.77;;;;;;;10.56;94.54;101276.44;5044661;28;20209;-87
2021/10/07 07:31:51;;;;;;;7.60;5.47;;;;;;;10.53;94.76;101273.84;5045623;28;20204;-85
2021/10/07 07:34:18;;;;;;;8.57;5.50;;;;;;;10.51;95.46;101270.38;5044690;28;20221;-88
2021/10/07 07:36:46;;;;;;;7.53;6.53;;;;;;;10.51;95.56;101258.19;5044890;28;20282;-89
2021/10/07 07:39:12;;;;;;;5.93;5.33;;;;;;;10.51;95.73;101260.81;5044324;28;20209;-89
2021/10/07 07:41:39;;;;;;;5.07;4.40;;;;;;;10.55;95.48;101266.88;5044915;28;20266;-87
2021/10/07 07:44:06;;;;;;;9.73;4.93;;;;;;;10.57;95.94;101261.66;5043942;28;20311;-86
2021/10/07 07:46:33;;;;;;;5.33;4.93;;;;;;;10.61;95.87;101260.75;5044043;28;20746;-85
2021/10/07 07:49:00;;;;;;;5.93;5.13;;;;;;;10.65;95.80;101270.31;5045317;28;20210;-89
2021/10/07 07:51:27;;;;;;;6.13;4.40;;;;;;;10.71;96.11;101270.28;5048396;28;20215;-83
2021/10/07 07:53:54;;;;;;;5.60;4.40;;;;;;;10.66;96.71;101266.81;5047530;28;20214;-87
2021/10/07 07:56:21;;;;;;;7.30;4.70;;;;;;;10.66;97.09;101251.13;5045511;28;20217;-87
2021/10/07 07:58:48;;;;;;;4.67;4.33;;;;;;;10.70;97.31;101251.13;5044854;28;20199;-87
2021/10/07 08:01:14;;;;;;;5.17;4.47;;;;;;;10.75;97.48;101248.47;5045161;28;20205;-87
2021/10/07 08:03:41;;;;;;;5.20;4.80;;;;;;;10.77;97.61;101251.94;5044919;28;20644;-87
2021/10/07 08:06:07;;;;;;;5.33;4.13;;;;;;;10.81;98.01;101255.41;5045500;28;20198;-87
2021/10/07 08:08:34;;;;;;;4.90;4.17;;;;;;;10.89;97.47;101267.53;5047354;28;20231;-84
2021/10/07 08:11:01;;;;;;;6.07;4.77;;;;;;;10.91;97.80;101257.06;5048323;28;20315;-86
2021/10/07 08:13:28;;;;;;;5.77;5.27;;;;;;;11.05;97.03;101270.91;5048549;28;20630;-87
2021/10/07 08:15:54;;;;;;;6.53;5.50;;;;;;;11.24;96.44;101296.91;5046456;28;20635;-87
2021/10/07 08:18:21;;;;;;;5.63;4.03;;;;;;;11.45;95.47;101332.44;5045704;28;20225;-87
2021/10/07 08:20:51;;;;;;;6.40;3.87;;;;;;;11.56;95.75;101329.75;5045711;28;21195;-86
2021/10/07 08:23:17;;;;;;;4.00;3.70;;;;;;;11.64;96.09;101326.19;5046600;28;20320;-87
2021/10/07 08:25:44;;;;;;;4.47;4.07;;;;;;;11.75;96.25;101335.69;5047188;28;20264;-87
2021/10/07 08:28:11;;;;;;;4.67;4.00;;;;;;;12.00;94.59;101352.91;5046866;28;20801;-88
2021/10/07 08:30:38;;;;;;;4.93;4.43;;;;;;;12.12;93.75;101378.94;5043663;28;20691;-87
2021/10/07 08:33:04;;;;;;;4.20;3.80;;;;;;;12.39;91.96;101420.53;5045027;28;20252;-86
2021/10/07 08:35:31;;;;;;;4.40;4.10;;;;;;;12.51;91.69;101437.00;5042838;28;20268;-86
2021/10/07 08:37:58;;;;;;;4.53;3.30;;;;;;;12.70;90.50;101478.72;5046196;28;20227;-87
2021/10/07 08:40:24;;;;;;;5.10;4.60;;;;;;;12.80;89.52;101516.16;5044450;28;20209;-86
2021/10/07 08:42:51;;;;;;;6.30;5.70;;;;;;;12.91;87.80;101569.31;5044268;28;20202;-86
2021/10/07 08:45:19;;;;;;;6.20;5.77;;;;;;;12.89;87.74;101592.91;5046852;28;20234;-89
2021/10/07 08:47:49;;;;;;;6.53;6.00;;;;;;;12.89;87.00;101615.66;5048754;28;20226;-88
2021/10/07 08:50:19;;;;;;;6.30;5.70;;;;;;;12.88;87.08;101617.41;5050415;28;20204;-86
2021/10/07 08:52:45;;;;;;;7.33;5.80;;;;;;;12.93;86.39;101621.72;5044028;28;20249;-87
2021/10/07 08:55:12;;;;;;;5.73;5.30;;;;;;;13.05;85.96;101629.47;5044614;28;20203;-85
2021/10/07 08:57:39;;;;;;;5.43;4.93;;;;;;;13.08;85.13;101664.38;5050830;28;20230;-87
2021/10/07 09:00:08;;;;;;;5.63;5.13;;;;;;;13.22;84.89;101684.34;5046075;28;20211;-86
2021/10/07 09:02:36;;;;;;;7.20;6.10;;;;;;;13.32;85.13;101678.19;5044738;28;20674;-89
2021/10/07 09:05:08;;;;;;;5.70;5.30;;;;;;;13.44;85.57;101643.09;5043918;28;20235;-87
2021/10/07 09:07:34;;;;;;;7.10;6.50;;;;;;;13.40;85.50;101650.13;5044522;28;20240;-87
2021/10/07 09:10:01;;;;;;;6.43;5.90;;;;;;;13.04;85.28;101664.41;5044091;28;20204;-87
2021/10/07 09:12:28;;;;;;;6.23;5.83;;;;;;;12.97;86.30;101636.53;5045879;28;20214;-87
2021/10/07 09:14:55;;;;;;;6.70;6.03;;;;;;;12.97;85.46;101649.66;5057116;28;20218;-89
2021/10/07 09:17:23;;;;;;;6.97;6.37;;;;;;;12.95;86.64;101620.81;5067869;28;20238;-89
2021/10/07 09:19:51;;;;;;;5.83;5.30;;;;;;;13.03;86.69;101605.03;5062760;28;20215;-83
2021/10/07 09:22:19;;;;;;;11.83;6.37;;;;;;;13.03;85.33;101650.44;5059927;28;20218;-83
2021/10/07 09:24:48;;;;;;;6.27;5.67;;;;;;;13.18;85.63;101656.41;4352395;28;10000823;-83
2021/10/07 09:27:18;;;;;;;7.50;5.67;;;;;;;13.41;85.28;101643.97;5044669;28;20802;-84
2021/10/07 09:29:49;;;;;;;6.23;5.67;;;;;;;13.50;84.38;101680.59;5043989;28;20642;-84
2021/10/07 09:32:25;;;;;;;6.00;4.80;;;;;;;13.65;83.56;101704.91;5044174;28;20254;-84
2021/10/07 09:34:53;;;;;;;6.40;5.80;;;;;;;13.49;83.12;101749.66;5044408;28;20198;-84
2021/10/07 09:37:22;;;;;;;4.97;4.57;;;;;;;13.51;83.38;101741.78;5044265;28;20285;-83
2021/10/07 09:39:50;;;;;;;5.87;5.40;;;;;;;13.55;83.00;101735.63;5043770;28;20208;-82
2021/10/07 09:42:18;;;;;;;5.60;5.20;;;;;;;13.69;82.96;101744.22;5045183;28;20215;-83
2021/10/07 09:45:01;;;;;;;5.13;4.63;;;;;;;13.71;82.61;101749.44;5044480;28;20282;-83
2021/10/07 09:47:29;;;;;;;4.97;4.57;;;;;;;13.68;82.52;101754.75;5045180;28;20249;-83
2021/10/07 09:50:12;;;;;;;5.30;4.80;;;;;;;13.65;82.50;101773.13;5043560;28;20207;-84
2021/10/07 09:52:39;;;;;;;6.83;5.03;;;;;;;13.50;82.87;101750.56;5044497;28;20257;-83
2021/10/07 09:55:10;;;;;;;5.07;4.67;;;;;;;13.56;82.00;101768.84;5044836;28;20212;-83
2021/10/07 09:57:48;;;;;;;6.20;4.73;;;;;;;13.72;81.76;101777.44;5044553;28;20230;-83
2021/10/07 10:00:15;;;;;;;4.00;3.70;;;;;;;13.72;82.31;101780.06;5043957;28;20199;-83
2021/10/07 10:02:42;;;;;;;4.40;4.10;;;;;;;13.57;81.27;101807.31;5043839;28;20209;-84
2021/10/07 10:05:12;;;;;;;5.73;4.87;;;;;;;13.56;82.21;101779.34;5044274;28;20230;-83
2021/10/07 10:07:38;;;;;;;5.40;4.37;;;;;;;13.57;82.77;101760.09;5043870;28;20231;-86
2021/10/07 10:10:06;;;;;;;5.13;4.70;;;;;;;13.55;82.29;101768.88;5046187;28;20220;-89
2021/10/07 10:12:33;;;;;;;5.03;4.60;;;;;;;13.50;82.93;101755.81;5045421;28;20207;-81
2021/10/07 10:14:59;;;;;;;5.00;4.60;;;;;;;13.52;82.50;101780.28;5051324;28;20247;-81
2021/10/07 10:17:27;;;;;;;4.37;4.00;;;;;;;13.67;81.47;101792.34;5051138;28;20261;-80
2021/10/07 10:19:57;;;;;;;5.40;4.70;;;;;;;13.83;81.01;101830.66;5049877;28;20273;-83
2021/10/07 10:22:26;;;;;;;4.77;4.23;;;;;;;13.80;79.60;101861.34;5048485;28;20238;-81
2021/10/07 10:24:53;;;;;;;10.73;3.90;;;;;;;14.08;82.01;101802.41;5049833;28;20766;-88
2021/10/07 10:27:20;;;;;;;4.97;4.20;;;;;;;14.33;80.73;101823.13;5047208;28;20228;-83
2021/10/07 10:29:46;;;;;;;4.47;4.03;;;;;;;14.43;79.75;101877.31;5049384;28;20708;-84
2021/10/07 10:32:13;;;;;;;3.80;3.50;;;;;;;14.43;77.17;101950.88;5051414;28;20214;-84
2021/10/07 10:34:42;;;;;;;3.90;3.27;;;;;;;14.34;76.64;101977.22;5049828;28;20224;-85
2021/10/07 10:37:10;;;;;;;3.20;3.00;;;;;;;14.16;77.50;101977.41;5050005;28;20228;-84
2021/10/07 10:39:39;;;;;;;4.40;3.63;;;;;;;14.02;76.28;101993.28;5048539;28;20707;-82
2021/10/07 10:42:07;;;;;;;3.73;3.43;;;;;;;14.10;77.29;101962.56;5048491;28;20208;-83
2021/10/07 10:44:42;;;;;;;4.10;3.80;;;;;;;14.08;76.21;101993.22;5049657;28;20216;-84
2021/10/07 10:47:26;;;;;;;3.47;3.10;;;;;;;14.30;77.89;101952.72;5048529;28;20227;-85
2021/10/07 10:50:11;;;;;;;4.10;3.80;;;;;;;14.66;79.47;101890.19;5047883;28;20204;-84
2021/10/07 10:52:42;;;;;;;3.00;2.77;;;;;;;14.89;77.38;101952.97;5049134;28;20203;-85
2021/10/07 10:55:12;;;;;;;3.83;3.37;;;;;;;15.08;74.66;102052.69;5047607;28;20275;-85
2021/10/07 10:57:41;;;;;;;3.30;3.00;;;;;;;15.21;74.10;102101.63;5049299;28;20239;-85
2021/10/07 11:00:14;;;;;;;3.27;2.97;;;;;;;15.43;73.97;102081.19;5050780;28;20623;-85
2021/10/07 11:02:42;;;;;;;4.07;2.80;;;;;;;15.57;73.56;102096.81;5050565;28;20203;-84
2021/10/07 11:05:17;;;;;;;2.70;2.50;;;;;;;15.78;75.60;102026.38;5050481;28;20227;-84
2021/10/07 11:07:44;;;;;;;3.20;2.03;;;;;;;15.67;71.40;102181.81;5050763;28;20235;-84
2021/10/07 11:10:17;;;;;;;3.43;2.43;;;;;;;15.42;71.18;102232.09;5050828;28;20212;-84
2021/10/07 11:12:52;;;;;;;2.97;1.93;;;;;;;15.69;72.82;102130.00;5051621;28;20208;-85
2021/10/07 11:15:20;;;;;;;2.00;1.90;;;;;;;15.85;71.68;102154.41;5050383;28;20223;-84
2021/10/07 11:17:49;;;;;;;2.10;2.00;;;;;;;15.89;70.92;102214.03;5050097;28;20235;-83
2021/10/07 11:20:18;;;;;;;2.40;2.20;;;;;;;16.02;71.16;102181.38;5049205;28;20208;-84
2021/10/07 11:23:05;;;;;;;2.17;1.87;;;;;;;16.23;74.92;102077.47;5049607;28;20221;-84
2021/10/07 11:25:35;;;;;;;2.93;1.50;;;;;;;16.10;72.05;102156.72;5049722;28;20775;-84
2021/10/07 11:28:02;;;;;;;2.70;1.80;;;;;;;16.21;72.25;102138.94;5051162;28;20221;-85